Stratton, Maine
Current Conditions -  °F | °C
As of 6:52 AM on Friday 21 Nov 2014 (Local Time) from KBML Reporting Station
Light Snow Light Snow  
Wind Chill: 10°   Ceiling: 2400
Heat Index: 20°   Visibility: 1.7mi
Dew Point: 14°   Wind: 8mph
Humidity: 78%   Direction: 280°W
Pressure: 29.87"   Gusts: 21mph
Location:  45.14°N, 70.44°W
Report Text: KBML 211152Z AUTO 28007G18KT 1 3/4SM -SN OVC024 M07/M10 A2987 RMK AO2 SLP133 P0000 60000 T10671100 11061 21117 52027
Loading
Personal Weather Stations






























Interactive Weather Map New forecast layout! Learn more

10-Day Weather Forecast

Advertisements
Track Severe Weather on mobile